sensor_id;sensor_type;location;lat;lon;timestamp;temperature;humidity
46085;DHT22;31823;47.032;8.310;2023-03-01T00:01:25;0.20;99.90
46085;DHT22;31823;47.032;8.310;2023-03-01T00:03:52;0.20;99.90
46085;DHT22;31823;47.032;8.310;2023-03-01T00:06:18;0.20;99.90
46085;DHT22;31823;47.032;8.310;2023-03-01T00:08:43;0.20;99.90
46085;DHT22;31823;47.032;8.310;2023-03-01T00:13:45;0.20;99.90
46085;DHT22;31823;47.032;8.310;2023-03-01T00:16:14;0.20;99.90
46085;DHT22;31823;47.032;8.310;2023-03-01T00:18:40;0.20;99.90
46085;DHT22;31823;47.032;8.310;2023-03-01T00:21:06;0.20;99.90
46085;DHT22;31823;47.032;8.310;2023-03-01T00:23:33;0.20;99.90
46085;DHT22;31823;47.032;8.310;2023-03-01T00:25:59;0.20;99.90
46085;DHT22;31823;47.032;8.310;2023-03-01T00:28:25;0.20;99.90
46085;DHT22;31823;47.032;8.310;2023-03-01T00:30:50;0.20;99.90
46085;DHT22;31823;47.032;8.310;2023-03-01T00:33:16;0.20;99.90
46085;DHT22;31823;47.032;8.310;2023-03-01T00:35:42;0.20;99.90
46085;DHT22;31823;47.032;8.310;2023-03-01T00:38:08;0.10;99.90
46085;DHT22;31823;47.032;8.310;2023-03-01T00:40:35;0.20;99.90
46085;DHT22;31823;47.032;8.310;2023-03-01T00:43:01;0.20;99.90
46085;DHT22;31823;47.032;8.310;2023-03-01T00:45:27;0.10;99.90
46085;DHT22;31823;47.032;8.310;2023-03-01T00:47:53;0.20;99.90
46085;DHT22;31823;47.032;8.310;2023-03-01T00:50:19;0.10;99.90
46085;DHT22;31823;47.032;8.310;2023-03-01T00:52:45;0.10;99.90
46085;DHT22;31823;47.032;8.310;2023-03-01T00:55:11;0.20;99.90
46085;DHT22;31823;47.032;8.310;2023-03-01T00:57:37;0.10;99.90
46085;DHT22;31823;47.032;8.310;2023-03-01T01:00:04;0.10;99.90
46085;DHT22;31823;47.032;8.310;2023-03-01T01:02:31;0.10;99.90
46085;DHT22;31823;47.032;8.310;2023-03-01T01:04:57;0.10;99.90
46085;DHT22;31823;47.032;8.310;2023-03-01T01:07:23;0.10;99.90
46085;DHT22;31823;47.032;8.310;2023-03-01T01:09:48;0.10;99.90
46085;DHT22;31823;47.032;8.310;2023-03-01T01:12:14;0.10;99.90
46085;DHT22;31823;47.032;8.310;2023-03-01T01:14:39;0.10;99.90
46085;DHT22;31823;47.032;8.310;2023-03-01T01:17:05;0.10;99.90
46085;DHT22;31823;47.032;8.310;2023-03-01T01:19:31;0.20;99.90
46085;DHT22;31823;47.032;8.310;2023-03-01T01:21:56;0.10;99.90
46085;DHT22;31823;47.032;8.310;2023-03-01T01:24:22;0.10;99.90
46085;DHT22;31823;47.032;8.310;2023-03-01T01:26:48;0.10;99.90
46085;DHT22;31823;47.032;8.310;2023-03-01T01:29:14;0.10;99.90
46085;DHT22;31823;47.032;8.310;2023-03-01T01:31:41;0.10;99.90
46085;DHT22;31823;47.032;8.310;2023-03-01T01:34:09;0.10;99.90
46085;DHT22;31823;47.032;8.310;2023-03-01T01:36:37;0.10;99.90
46085;DHT22;31823;47.032;8.310;2023-03-01T01:39:03;0.10;99.90
46085;DHT22;31823;47.032;8.310;2023-03-01T01:41:29;0.10;99.90
46085;DHT22;31823;47.032;8.310;2023-03-01T01:44:19;0.00;99.90
46085;DHT22;31823;47.032;8.310;2023-03-01T01:47:00;0.00;99.90
46085;DHT22;31823;47.032;8.310;2023-03-01T01:49:41;0.00;99.90
46085;DHT22;31823;47.032;8.310;2023-03-01T01:52:18;-0.10;99.90
46085;DHT22;31823;47.032;8.310;2023-03-01T01:54:59;0.00;99.90
46085;DHT22;31823;47.032;8.310;2023-03-01T01:57:43;0.00;99.90
46085;DHT22;31823;47.032;8.310;2023-03-01T02:00:14;0.00;99.90
46085;DHT22;31823;47.032;8.310;2023-03-01T02:02:41;0.00;99.90
46085;DHT22;31823;47.032;8.310;2023-03-01T02:08:01;0.00;99.90
46085;DHT22;31823;47.032;8.310;2023-03-01T02:10:28;-0.10;99.90
46085;DHT22;31823;47.032;8.310;2023-03-01T02:12:54;-0.10;99.90
46085;DHT22;31823;47.032;8.310;2023-03-01T02:15:22;0.00;99.90
46085;DHT22;31823;47.032;8.310;2023-03-01T02:17:48;0.00;99.90
46085;DHT22;31823;47.032;8.310;2023-03-01T02:20:30;0.00;99.90
46085;DHT22;31823;47.032;8.310;2023-03-01T02:22:58;0.00;99.90
46085;DHT22;31823;47.032;8.310;2023-03-01T02:26:07;0.00;99.90
46085;DHT22;31823;47.032;8.310;2023-03-01T02:30:47;0.00;99.90
46085;DHT22;31823;47.032;8.310;2023-03-01T02:33:34;0.00;99.90
46085;DHT22;31823;47.032;8.310;2023-03-01T02:36:08;0.00;99.90
46085;DHT22;31823;47.032;8.310;2023-03-01T02:38:35;0.10;99.90
46085;DHT22;31823;47.032;8.310;2023-03-01T02:41:02;0.10;99.90
46085;DHT22;31823;47.032;8.310;2023-03-01T02:43:31;0.10;99.90
46085;DHT22;31823;47.032;8.310;2023-03-01T02:46:04;0.00;99.90
46085;DHT22;31823;47.032;8.310;2023-03-01T02:48:43;0.00;99.90
46085;DHT22;31823;47.032;8.310;2023-03-01T02:56:18;0.00;99.90
46085;DHT22;31823;47.032;8.310;2023-03-01T02:58:44;0.10;99.90
46085;DHT22;31823;47.032;8.310;2023-03-01T03:01:17;0.10;99.90
46085;DHT22;31823;47.032;8.310;2023-03-01T03:03:43;0.10;99.90
46085;DHT22;31823;47.032;8.310;2023-03-01T03:06:09;0.10;99.90
46085;DHT22;31823;47.032;8.310;2023-03-01T03:08:35;0.10;99.90
46085;DHT22;31823;47.032;8.310;2023-03-01T03:11:00;0.10;99.90
46085;DHT22;31823;47.032;8.310;2023-03-01T03:13:26;0.00;99.90
46085;DHT22;31823;47.032;8.310;2023-03-01T03:15:54;0.10;99.90
46085;DHT22;31823;47.032;8.310;2023-03-01T03:18:20;0.10;99.90
46085;DHT22;31823;47.032;8.310;2023-03-01T03:20:47;0.00;99.90
46085;DHT22;31823;47.032;8.310;2023-03-01T03:23:13;0.00;99.90
46085;DHT22;31823;47.032;8.310;2023-03-01T03:25:38;0.00;99.90
46085;DHT22;31823;47.032;8.310;2023-03-01T03:28:06;0.10;99.90
46085;DHT22;31823;47.032;8.310;2023-03-01T03:30:36;0.00;99.90
46085;DHT22;31823;47.032;8.310;2023-03-01T03:33:05;0.00;99.90
46085;DHT22;31823;47.032;8.310;2023-03-01T03:35:34;0.00;99.90
46085;DHT22;31823;47.032;8.310;2023-03-01T03:38:03;0.00;99.90
46085;DHT22;31823;47.032;8.310;2023-03-01T03:40:37;0.10;99.90
46085;DHT22;31823;47.032;8.310;2023-03-01T03:43:12;0.00;99.90
46085;DHT22;31823;47.032;8.310;2023-03-01T03:45:38;0.00;99.90
46085;DHT22;31823;47.032;8.310;2023-03-01T03:48:06;0.00;99.90
46085;DHT22;31823;47.032;8.310;2023-03-01T03:50:32;0.10;99.90
46085;DHT22;31823;47.032;8.310;2023-03-01T03:53:00;0.00;99.90
46085;DHT22;31823;47.032;8.310;2023-03-01T03:55:26;0.00;99.90
46085;DHT22;31823;47.032;8.310;2023-03-01T03:57:57;0.00;99.90
46085;DHT22;31823;47.032;8.310;2023-03-01T04:00:23;0.00;99.90
46085;DHT22;31823;47.032;8.310;2023-03-01T04:02:50;0.10;99.90
46085;DHT22;31823;47.032;8.310;2023-03-01T04:05:17;0.10;99.90
46085;DHT22;31823;47.032;8.310;2023-03-01T04:07:44;0.00;99.90
46085;DHT22;31823;47.032;8.310;2023-03-01T04:10:13;0.00;99.90
46085;DHT22;31823;47.032;8.310;2023-03-01T04:12:39;0.10;99.90
46085;DHT22;31823;47.032;8.310;2023-03-01T04:15:07;0.00;99.90
46085;DHT22;31823;47.032;8.310;2023-03-01T04:17:43;0.00;99.90
46085;DHT22;31823;47.032;8.310;2023-03-01T04:20:13;0.00;99.90
46085;DHT22;31823;47.032;8.310;2023-03-01T04:22:42;0.00;99.90
46085;DHT22;31823;47.032;8.310;2023-03-01T04:25:09;0.00;99.90
46085;DHT22;31823;47.032;8.310;2023-03-01T04:27:35;0.00;99.90
46085;DHT22;31823;47.032;8.310;2023-03-01T04:30:03;0.00;99.90
46085;DHT22;31823;47.032;8.310;2023-03-01T04:32:29;-0.10;99.90
46085;DHT22;31823;47.032;8.310;2023-03-01T04:34:54;-0.10;99.90
46085;DHT22;31823;47.032;8.310;2023-03-01T04:37:20;0.00;99.90
46085;DHT22;31823;47.032;8.310;2023-03-01T04:39:45;-0.10;99.90
46085;DHT22;31823;47.032;8.310;2023-03-01T04:42:13;-0.10;99.90
46085;DHT22;31823;47.032;8.310;2023-03-01T04:44:39;-0.10;99.90
46085;DHT22;31823;47.032;8.310;2023-03-01T04:47:04;-0.10;99.90
46085;DHT22;31823;47.032;8.310;2023-03-01T04:49:30;-0.10;99.90
46085;DHT22;31823;47.032;8.310;2023-03-01T04:51:56;-0.10;99.90
46085;DHT22;31823;47.032;8.310;2023-03-01T04:54:27;-0.10;99.90
46085;DHT22;31823;47.032;8.310;2023-03-01T04:56:54;-0.10;99.90
46085;DHT22;31823;47.032;8.310;2023-03-01T04:59:20;-0.10;99.90
46085;DHT22;31823;47.032;8.310;2023-03-01T05:01:51;-0.10;99.90
46085;DHT22;31823;47.032;8.310;2023-03-01T05:04:16;0.00;99.90
46085;DHT22;31823;47.032;8.310;2023-03-01T05:06:42;0.00;99.90
46085;DHT22;31823;47.032;8.310;2023-03-01T05:09:08;-0.10;99.90
46085;DHT22;31823;47.032;8.310;2023-03-01T05:11:34;-0.10;99.90
46085;DHT22;31823;47.032;8.310;2023-03-01T05:14:05;-0.10;99.90
46085;DHT22;31823;47.032;8.310;2023-03-01T05:16:31;0.00;99.90
46085;DHT22;31823;47.032;8.310;2023-03-01T05:18:58;0.00;99.90
46085;DHT22;31823;47.032;8.310;2023-03-01T05:21:24;0.00;99.90
46085;DHT22;31823;47.032;8.310;2023-03-01T05:23:49;-0.10;99.90
46085;DHT22;31823;47.032;8.310;2023-03-01T05:26:16;-0.10;99.90
46085;DHT22;31823;47.032;8.310;2023-03-01T05:28:43;-0.10;99.90
46085;DHT22;31823;47.032;8.310;2023-03-01T05:31:08;-0.10;99.90
46085;DHT22;31823;47.032;8.310;2023-03-01T05:33:39;-0.10;99.90
46085;DHT22;31823;47.032;8.310;2023-03-01T05:36:06;-0.10;99.90
46085;DHT22;31823;47.032;8.310;2023-03-01T05:38:32;0.00;99.90
46085;DHT22;31823;47.032;8.310;2023-03-01T05:40:58;0.00;99.90
46085;DHT22;31823;47.032;8.310;2023-03-01T05:43:23;0.10;99.90
46085;DHT22;31823;47.032;8.310;2023-03-01T05:45:49;0.10;99.90
46085;DHT22;31823;47.032;8.310;2023-03-01T05:48:15;0.00;99.90
46085;DHT22;31823;47.032;8.310;2023-03-01T05:50:42;0.10;99.90
46085;DHT22;31823;47.032;8.310;2023-03-01T05:53:17;0.00;99.90
46085;DHT22;31823;47.032;8.310;2023-03-01T05:55:43;0.10;99.90
46085;DHT22;31823;47.032;8.310;2023-03-01T05:58:12;0.10;99.90
46085;DHT22;31823;47.032;8.310;2023-03-01T06:00:40;0.00;99.90
46085;DHT22;31823;47.032;8.310;2023-03-01T06:03:06;0.00;99.90
46085;DHT22;31823;47.032;8.310;2023-03-01T06:05:31;0.00;99.90
46085;DHT22;31823;47.032;8.310;2023-03-01T06:08:00;0.00;99.90
46085;DHT22;31823;47.032;8.310;2023-03-01T06:10:26;0.10;99.90
46085;DHT22;31823;47.032;8.310;2023-03-01T06:12:52;0.10;99.90
46085;DHT22;31823;47.032;8.310;2023-03-01T06:15:18;0.10;99.90
46085;DHT22;31823;47.032;8.310;2023-03-01T06:17:46;0.10;99.90
46085;DHT22;31823;47.032;8.310;2023-03-01T06:20:14;0.10;99.90
46085;DHT22;31823;47.032;8.310;2023-03-01T06:22:40;0.10;99.90
46085;DHT22;31823;47.032;8.310;2023-03-01T06:25:08;0.10;99.90
46085;DHT22;31823;47.032;8.310;2023-03-01T06:27:34;0.10;99.90
46085;DHT22;31823;47.032;8.310;2023-03-01T06:29:59;0.10;99.90
46085;DHT22;31823;47.032;8.310;2023-03-01T06:32:25;0.10;99.90
46085;DHT22;31823;47.032;8.310;2023-03-01T06:34:50;0.20;99.90
46085;DHT22;31823;47.032;8.310;2023-03-01T06:37:16;0.10;99.90
46085;DHT22;31823;47.032;8.310;2023-03-01T06:39:42;0.00;99.90
46085;DHT22;31823;47.032;8.310;2023-03-01T06:42:08;0.00;99.90
46085;DHT22;31823;47.032;8.310;2023-03-01T06:44:35;-0.10;99.90
46085;DHT22;31823;47.032;8.310;2023-03-01T06:47:01;0.00;99.90
46085;DHT22;31823;47.032;8.310;2023-03-01T06:49:26;0.00;99.90
46085;DHT22;31823;47.032;8.310;2023-03-01T06:51:52;0.10;99.90
46085;DHT22;31823;47.032;8.310;2023-03-01T06:54:18;0.20;99.90
46085;DHT22;31823;47.032;8.310;2023-03-01T06:56:46;0.10;99.90
46085;DHT22;31823;47.032;8.310;2023-03-01T06:59:12;0.00;99.90
46085;DHT22;31823;47.032;8.310;2023-03-01T07:01:37;0.00;99.90
46085;DHT22;31823;47.032;8.310;2023-03-01T07:04:04;-0.10;99.90
46085;DHT22;31823;47.032;8.310;2023-03-01T07:06:30;0.00;99.90
46085;DHT22;31823;47.032;8.310;2023-03-01T07:08:55;0.10;99.90
46085;DHT22;31823;47.032;8.310;2023-03-01T07:11:21;0.30;99.90
46085;DHT22;31823;47.032;8.310;2023-03-01T07:13:46;0.40;99.90
46085;DHT22;31823;47.032;8.310;2023-03-01T07:16:12;0.40;99.90
46085;DHT22;31823;47.032;8.310;2023-03-01T07:18:39;0.30;99.90
46085;DHT22;31823;47.032;8.310;2023-03-01T07:21:09;0.20;99.90
46085;DHT22;31823;47.032;8.310;2023-03-01T07:23:36;0.20;99.90
46085;DHT22;31823;47.032;8.310;2023-03-01T07:26:01;0.20;99.90
46085;DHT22;31823;47.032;8.310;2023-03-01T07:28:27;0.20;99.90
46085;DHT22;31823;47.032;8.310;2023-03-01T07:30:54;0.30;99.90
46085;DHT22;31823;47.032;8.310;2023-03-01T07:33:20;0.50;99.90
46085;DHT22;31823;47.032;8.310;2023-03-01T07:35:46;0.50;99.90
46085;DHT22;31823;47.032;8.310;2023-03-01T07:38:11;0.40;99.90
46085;DHT22;31823;47.032;8.310;2023-03-01T07:40:37;0.60;99.90
46085;DHT22;31823;47.032;8.310;2023-03-01T07:43:02;0.60;99.90
46085;DHT22;31823;47.032;8.310;2023-03-01T07:45:28;0.60;99.90
46085;DHT22;31823;47.032;8.310;2023-03-01T07:47:55;0.60;99.90
46085;DHT22;31823;47.032;8.310;2023-03-01T07:50:21;0.60;99.90
46085;DHT22;31823;47.032;8.310;2023-03-01T07:52:49;0.60;99.90
46085;DHT22;31823;47.032;8.310;2023-03-01T07:55:16;0.70;99.90
46085;DHT22;31823;47.032;8.310;2023-03-01T07:57:41;0.60;99.90
46085;DHT22;31823;47.032;8.310;2023-03-01T08:00:09;0.70;99.90
46085;DHT22;31823;47.032;8.310;2023-03-01T08:02:35;0.70;99.90
46085;DHT22;31823;47.032;8.310;2023-03-01T08:05:00;0.70;99.90
46085;DHT22;31823;47.032;8.310;2023-03-01T08:07:26;0.60;99.90
46085;DHT22;31823;47.032;8.310;2023-03-01T08:09:51;0.70;99.90
46085;DHT22;31823;47.032;8.310;2023-03-01T08:12:17;0.70;99.90
46085;DHT22;31823;47.032;8.310;2023-03-01T08:14:43;0.70;99.90
46085;DHT22;31823;47.032;8.310;2023-03-01T08:17:08;0.80;99.90
46085;DHT22;31823;47.032;8.310;2023-03-01T08:19:34;0.80;99.90
46085;DHT22;31823;47.032;8.310;2023-03-01T08:22:01;0.90;99.90
46085;DHT22;31823;47.032;8.310;2023-03-01T08:24:27;0.80;99.90
46085;DHT22;31823;47.032;8.310;2023-03-01T08:26:53;0.80;99.90
46085;DHT22;31823;47.032;8.310;2023-03-01T08:29:19;0.80;99.90
46085;DHT22;31823;47.032;8.310;2023-03-01T08:31:44;0.80;99.90
46085;DHT22;31823;47.032;8.310;2023-03-01T08:34:13;0.90;99.90
46085;DHT22;31823;47.032;8.310;2023-03-01T08:36:41;0.90;99.90
46085;DHT22;31823;47.032;8.310;2023-03-01T08:39:09;0.90;99.90
46085;DHT22;31823;47.032;8.310;2023-03-01T08:41:35;0.90;99.90
46085;DHT22;31823;47.032;8.310;2023-03-01T08:44:01;0.90;99.90
46085;DHT22;31823;47.032;8.310;2023-03-01T08:46:35;0.90;99.90
46085;DHT22;31823;47.032;8.310;2023-03-01T08:49:04;0.80;99.90
46085;DHT22;31823;47.032;8.310;2023-03-01T08:51:31;0.90;99.90
46085;DHT22;31823;47.032;8.310;2023-03-01T08:54:05;0.90;99.90
46085;DHT22;31823;47.032;8.310;2023-03-01T08:56:32;0.90;99.90
46085;DHT22;31823;47.032;8.310;2023-03-01T08:58:58;0.90;99.90
46085;DHT22;31823;47.032;8.310;2023-03-01T09:01:23;0.90;99.90
46085;DHT22;31823;47.032;8.310;2023-03-01T09:03:49;0.80;99.90
46085;DHT22;31823;47.032;8.310;2023-03-01T09:06:15;0.90;99.90
46085;DHT22;31823;47.032;8.310;2023-03-01T09:08:46;0.90;99.90
46085;DHT22;31823;47.032;8.310;2023-03-01T09:11:15;0.90;99.90
46085;DHT22;31823;47.032;8.310;2023-03-01T09:13:42;0.90;99.90
46085;DHT22;31823;47.032;8.310;2023-03-01T09:16:08;1.00;99.90
46085;DHT22;31823;47.032;8.310;2023-03-01T09:18:34;0.90;99.90
46085;DHT22;31823;47.032;8.310;2023-03-01T09:21:05;1.00;99.90
46085;DHT22;31823;47.032;8.310;2023-03-01T09:23:33;1.00;99.90
46085;DHT22;31823;47.032;8.310;2023-03-01T09:26:00;1.00;99.90
46085;DHT22;31823;47.032;8.310;2023-03-01T09:28:25;1.00;99.90
46085;DHT22;31823;47.032;8.310;2023-03-01T09:30:51;1.10;99.90
46085;DHT22;31823;47.032;8.310;2023-03-01T09:33:16;1.20;99.90
46085;DHT22;31823;47.032;8.310;2023-03-01T09:35:42;1.20;99.90
46085;DHT22;31823;47.032;8.310;2023-03-01T09:38:13;1.20;99.90
46085;DHT22;31823;47.032;8.310;2023-03-01T09:40:43;1.20;99.90
46085;DHT22;31823;47.032;8.310;2023-03-01T09:45:53;1.20;99.90
46085;DHT22;31823;47.032;8.310;2023-03-01T09:48:23;1.20;99.90
46085;DHT22;31823;47.032;8.310;2023-03-01T09:50:50;1.40;99.90
46085;DHT22;31823;47.032;8.310;2023-03-01T09:53:22;1.30;99.90
46085;DHT22;31823;47.032;8.310;2023-03-01T09:58:49;1.40;99.90
46085;DHT22;31823;47.032;8.310;2023-03-01T10:01:29;1.40;99.90
46085;DHT22;31823;47.032;8.310;2023-03-01T10:06:46;1.50;99.90
46085;DHT22;31823;47.032;8.310;2023-03-01T10:09:16;1.50;99.90
46085;DHT22;31823;47.032;8.310;2023-03-01T10:11:45;1.50;99.90
46085;DHT22;31823;47.032;8.310;2023-03-01T10:14:35;1.50;99.90
46085;DHT22;31823;47.032;8.310;2023-03-01T10:22:49;1.50;99.90
46085;DHT22;31823;47.032;8.310;2023-03-01T10:28:17;1.60;99.90
46085;DHT22;31823;47.032;8.310;2023-03-01T10:30:43;1.60;99.90
46085;DHT22;31823;47.032;8.310;2023-03-01T10:33:24;1.60;99.90
46085;DHT22;31823;47.032;8.310;2023-03-01T10:35:50;1.70;99.90
46085;DHT22;31823;47.032;8.310;2023-03-01T10:38:17;1.70;99.90
46085;DHT22;31823;47.032;8.310;2023-03-01T10:41:16;1.70;99.90
46085;DHT22;31823;47.032;8.310;2023-03-01T10:43:50;1.80;99.90
46085;DHT22;31823;47.032;8.310;2023-03-01T10:46:25;1.80;99.90
46085;DHT22;31823;47.032;8.310;2023-03-01T10:49:14;1.80;99.90
46085;DHT22;31823;47.032;8.310;2023-03-01T10:51:41;1.80;99.90
46085;DHT22;31823;47.032;8.310;2023-03-01T10:56:52;1.70;99.90
46085;DHT22;31823;47.032;8.310;2023-03-01T10:59:29;1.80;99.90
46085;DHT22;31823;47.032;8.310;2023-03-01T11:02:26;1.70;99.90
46085;DHT22;31823;47.032;8.310;2023-03-01T11:07:48;1.70;99.90
46085;DHT22;31823;47.032;8.310;2023-03-01T11:10:18;1.80;99.90
46085;DHT22;31823;47.032;8.310;2023-03-01T11:12:44;1.80;99.90
46085;DHT22;31823;47.032;8.310;2023-03-01T11:15:22;1.90;99.90
46085;DHT22;31823;47.032;8.310;2023-03-01T11:17:49;1.80;99.90
46085;DHT22;31823;47.032;8.310;2023-03-01T11:20:31;1.80;99.90
46085;DHT22;31823;47.032;8.310;2023-03-01T11:23:01;1.80;99.90
46085;DHT22;31823;47.032;8.310;2023-03-01T11:25:33;1.70;99.90
46085;DHT22;31823;47.032;8.310;2023-03-01T11:28:02;1.90;99.90
46085;DHT22;31823;47.032;8.310;2023-03-01T11:30:44;1.80;99.90
46085;DHT22;31823;47.032;8.310;2023-03-01T11:33:17;2.00;99.90
46085;DHT22;31823;47.032;8.310;2023-03-01T11:35:50;2.00;99.90
46085;DHT22;31823;47.032;8.310;2023-03-01T11:38:25;2.00;99.90
46085;DHT22;31823;47.032;8.310;2023-03-01T11:40:58;2.00;99.90
46085;DHT22;31823;47.032;8.310;2023-03-01T12:08:17;1.90;99.90
46085;DHT22;31823;47.032;8.310;2023-03-01T12:13:49;2.00;99.90
46085;DHT22;31823;47.032;8.310;2023-03-01T12:22:29;1.90;99.90
46085;DHT22;31823;47.032;8.310;2023-03-01T12:25:20;1.90;99.90
46085;DHT22;31823;47.032;8.310;2023-03-01T12:44:05;1.90;99.90
46085;DHT22;31823;47.032;8.310;2023-03-01T12:47:04;1.90;99.90
46085;DHT22;31823;47.032;8.310;2023-03-01T12:49:41;1.90;99.90
46085;DHT22;31823;47.032;8.310;2023-03-01T12:54:39;1.80;99.90
46085;DHT22;31823;47.032;8.310;2023-03-01T12:57:31;1.90;99.90
46085;DHT22;31823;47.032;8.310;2023-03-01T13:05:42;1.90;99.90
46085;DHT22;31823;47.032;8.310;2023-03-01T13:08:16;1.90;99.90
46085;DHT22;31823;47.032;8.310;2023-03-01T13:10:58;2.00;99.90
46085;DHT22;31823;47.032;8.310;2023-03-01T13:13:40;2.00;99.90
46085;DHT22;31823;47.032;8.310;2023-03-01T13:19:10;2.20;99.90
46085;DHT22;31823;47.032;8.310;2023-03-01T13:21:38;2.20;99.90
46085;DHT22;31823;47.032;8.310;2023-03-01T13:24:03;2.30;99.90
46085;DHT22;31823;47.032;8.310;2023-03-01T13:26:29;2.20;99.90
46085;DHT22;31823;47.032;8.310;2023-03-01T13:28:56;2.20;99.90
46085;DHT22;31823;47.032;8.310;2023-03-01T13:33:57;2.20;99.90
46085;DHT22;31823;47.032;8.310;2023-03-01T13:46:48;2.10;99.90
46085;DHT22;31823;47.032;8.310;2023-03-01T13:49:16;2.20;99.90
46085;DHT22;31823;47.032;8.310;2023-03-01T13:51:46;2.10;99.90
46085;DHT22;31823;47.032;8.310;2023-03-01T13:54:15;2.10;99.90
46085;DHT22;31823;47.032;8.310;2023-03-01T13:56:40;2.10;99.90
46085;DHT22;31823;47.032;8.310;2023-03-01T13:59:18;2.20;99.90
46085;DHT22;31823;47.032;8.310;2023-03-01T14:01:44;2.20;99.90
46085;DHT22;31823;47.032;8.310;2023-03-01T14:06:51;2.10;99.90
46085;DHT22;31823;47.032;8.310;2023-03-01T14:09:28;2.10;99.90
46085;DHT22;31823;47.032;8.310;2023-03-01T14:20:27;2.10;99.90
46085;DHT22;31823;47.032;8.310;2023-03-01T14:22:56;2.20;99.90
46085;DHT22;31823;47.032;8.310;2023-03-01T14:25:33;2.20;99.90
46085;DHT22;31823;47.032;8.310;2023-03-01T14:28:27;2.20;99.90
46085;DHT22;31823;47.032;8.310;2023-03-01T14:30:57;2.20;99.90
46085;DHT22;31823;47.032;8.310;2023-03-01T14:33:37;2.20;99.90
46085;DHT22;31823;47.032;8.310;2023-03-01T14:41:22;1.90;99.90
46085;DHT22;31823;47.032;8.310;2023-03-01T14:44:12;2.00;99.90
46085;DHT22;31823;47.032;8.310;2023-03-01T14:46:41;2.00;99.90
46085;DHT22;31823;47.032;8.310;2023-03-01T14:49:13;2.10;99.90
46085;DHT22;31823;47.032;8.310;2023-03-01T14:51:42;2.10;99.90
46085;DHT22;31823;47.032;8.310;2023-03-01T14:56:46;2.10;99.90
46085;DHT22;31823;47.032;8.310;2023-03-01T14:59:12;2.10;99.90
46085;DHT22;31823;47.032;8.310;2023-03-01T15:01:40;2.20;99.90
46085;DHT22;31823;47.032;8.310;2023-03-01T15:04:08;2.20;99.90
46085;DHT22;31823;47.032;8.310;2023-03-01T15:06:34;2.10;99.90
46085;DHT22;31823;47.032;8.310;2023-03-01T15:09:00;2.10;99.90
46085;DHT22;31823;47.032;8.310;2023-03-01T15:11:32;2.10;99.90
46085;DHT22;31823;47.032;8.310;2023-03-01T15:13:59;2.10;99.90
46085;DHT22;31823;47.032;8.310;2023-03-01T15:16:30;2.10;99.90
46085;DHT22;31823;47.032;8.310;2023-03-01T15:19:17;2.00;99.90
46085;DHT22;31823;47.032;8.310;2023-03-01T15:21:49;2.10;99.90
46085;DHT22;31823;47.032;8.310;2023-03-01T15:24:23;2.00;99.90
46085;DHT22;31823;47.032;8.310;2023-03-01T15:26:58;2.00;99.90
46085;DHT22;31823;47.032;8.310;2023-03-01T15:29:29;2.00;99.90
46085;DHT22;31823;47.032;8.310;2023-03-01T15:32:03;2.00;99.90
46085;DHT22;31823;47.032;8.310;2023-03-01T15:34:36;2.10;99.90
46085;DHT22;31823;47.032;8.310;2023-03-01T15:37:04;2.10;99.90
46085;DHT22;31823;47.032;8.310;2023-03-01T15:45:11;2.00;99.90
46085;DHT22;31823;47.032;8.310;2023-03-01T15:47:40;1.90;99.90
46085;DHT22;31823;47.032;8.310;2023-03-01T15:50:17;2.00;99.90
46085;DHT22;31823;47.032;8.310;2023-03-01T15:52:43;2.00;99.90
46085;DHT22;31823;47.032;8.310;2023-03-01T15:55:22;1.90;99.90
46085;DHT22;31823;47.032;8.310;2023-03-01T15:57:48;1.90;99.90
46085;DHT22;31823;47.032;8.310;2023-03-01T16:00:17;1.90;99.90
46085;DHT22;31823;47.032;8.310;2023-03-01T16:02:45;1.90;99.90
46085;DHT22;31823;47.032;8.310;2023-03-01T16:05:22;1.90;99.90
46085;DHT22;31823;47.032;8.310;2023-03-01T16:07:49;1.90;99.90
46085;DHT22;31823;47.032;8.310;2023-03-01T16:10:17;1.90;99.90
46085;DHT22;31823;47.032;8.310;2023-03-01T16:12:42;1.90;99.90
46085;DHT22;31823;47.032;8.310;2023-03-01T16:15:15;1.90;99.90
46085;DHT22;31823;47.032;8.310;2023-03-01T16:17:41;1.90;99.90
46085;DHT22;31823;47.032;8.310;2023-03-01T16:20:07;1.90;99.90
46085;DHT22;31823;47.032;8.310;2023-03-01T16:22:33;1.80;99.90
46085;DHT22;31823;47.032;8.310;2023-03-01T16:24:58;1.90;99.90
46085;DHT22;31823;47.032;8.310;2023-03-01T16:27:24;1.90;99.90
46085;DHT22;31823;47.032;8.310;2023-03-01T16:29:50;1.90;99.90
46085;DHT22;31823;47.032;8.310;2023-03-01T16:32:15;1.90;99.90
46085;DHT22;31823;47.032;8.310;2023-03-01T16:34:41;1.90;99.90
46085;DHT22;31823;47.032;8.310;2023-03-01T16:37:06;1.80;99.90
46085;DHT22;31823;47.032;8.310;2023-03-01T16:39:32;1.80;99.90
46085;DHT22;31823;47.032;8.310;2023-03-01T16:42:00;1.80;99.90
46085;DHT22;31823;47.032;8.310;2023-03-01T16:44:26;1.70;99.90
46085;DHT22;31823;47.032;8.310;2023-03-01T16:46:51;1.70;99.90
46085;DHT22;31823;47.032;8.310;2023-03-01T16:49:17;1.70;99.90
46085;DHT22;31823;47.032;8.310;2023-03-01T16:51:42;1.70;99.90
46085;DHT22;31823;47.032;8.310;2023-03-01T16:54:10;1.70;99.90
46085;DHT22;31823;47.032;8.310;2023-03-01T16:56:36;1.70;99.90
46085;DHT22;31823;47.032;8.310;2023-03-01T16:59:03;1.70;99.90
46085;DHT22;31823;47.032;8.310;2023-03-01T17:01:30;1.70;99.90
46085;DHT22;31823;47.032;8.310;2023-03-01T17:04:02;1.70;99.90
46085;DHT22;31823;47.032;8.310;2023-03-01T17:06:28;1.60;99.90
46085;DHT22;31823;47.032;8.310;2023-03-01T17:08:54;1.60;99.90
46085;DHT22;31823;47.032;8.310;2023-03-01T17:11:20;1.60;99.90
46085;DHT22;31823;47.032;8.310;2023-03-01T17:13:46;1.50;99.90
46085;DHT22;31823;47.032;8.310;2023-03-01T17:16:14;1.50;99.90
46085;DHT22;31823;47.032;8.310;2023-03-01T17:18:41;1.50;99.90
46085;DHT22;31823;47.032;8.310;2023-03-01T17:21:08;1.50;99.90
46085;DHT22;31823;47.032;8.310;2023-03-01T17:23:36;1.50;99.90
46085;DHT22;31823;47.032;8.310;2023-03-01T17:26:03;1.50;99.90
46085;DHT22;31823;47.032;8.310;2023-03-01T17:28:30;1.50;99.90
46085;DHT22;31823;47.032;8.310;2023-03-01T17:30:57;1.50;99.90
46085;DHT22;31823;47.032;8.310;2023-03-01T17:33:23;1.50;99.90
46085;DHT22;31823;47.032;8.310;2023-03-01T17:35:49;1.50;99.90
46085;DHT22;31823;47.032;8.310;2023-03-01T17:38:15;1.50;99.90
46085;DHT22;31823;47.032;8.310;2023-03-01T17:40:41;1.50;99.90
46085;DHT22;31823;47.032;8.310;2023-03-01T17:43:08;1.50;99.90
46085;DHT22;31823;47.032;8.310;2023-03-01T17:45:36;1.50;99.90
46085;DHT22;31823;47.032;8.310;2023-03-01T17:48:02;1.40;99.90
46085;DHT22;31823;47.032;8.310;2023-03-01T17:50:28;1.50;99.90
46085;DHT22;31823;47.032;8.310;2023-03-01T17:52:54;1.50;99.90
46085;DHT22;31823;47.032;8.310;2023-03-01T17:55:20;1.40;99.90
46085;DHT22;31823;47.032;8.310;2023-03-01T17:57:46;1.40;99.90
46085;DHT22;31823;47.032;8.310;2023-03-01T18:00:14;1.40;99.90
46085;DHT22;31823;47.032;8.310;2023-03-01T18:02:40;1.40;99.90
46085;DHT22;31823;47.032;8.310;2023-03-01T18:05:06;1.40;99.90
46085;DHT22;31823;47.032;8.310;2023-03-01T18:07:31;1.40;99.90
46085;DHT22;31823;47.032;8.310;2023-03-01T18:09:57;1.40;99.90